Historyczne dane pomiarowe

Dodano dane terminowe – wersja testowa.

Dane z okresu 1951-2019

Wersja bazy: 1.34 [2019-03-16, lista zmian], aktualizacja planowana na 2019-04-15

Dane meteo z obszaru Polski uzyskane na podstawie danych udostępnionych przez Instytut Meteorologii i Gospodarki Wodnej – Państwowy Instytut Badawczy.

 

Wybierz Datę:    

       

TemperaturaWilgotnośćWiatrCiśnienieOpadyŚniegCzas trwania zjawisk
 Stacja t tx tn tng RH VA  wxwx mslp ppp RRR   cm mm wxwxwxwxwxwxwx
2019-07-01 25.6 30.4 22.9 19.8 50.8- 5.7 2.3---- 0.4------------
2019-06-30 26.4 34.6 17.6 12.9 40.5- 0.0 2.0---- 0.0------------
2019-06-29 20.7 27.3 12.6 9.1 45.3- 1.7 3.7---- 0.0------------
2019-06-28 19.0 24.6 13.9 11.3 52.3- 2.7 2.3---- 0.0------------
2019-06-27 22.9 31.4 20.0 19.0 65.3- 5.0 3.3---- 0.0------------
2019-06-26 29.1 36.0 22.7 19.8 48.3- 3.3 3.3---- 0.0------------
2019-06-25 24.8 31.9 14.4 10.9 44.0- 2.3 3.3---- 0.0------------
2019-06-24 21.9 29.7 13.3 9.5 49.8- 0.7 2.3---- 0.0------------
2019-06-23 19.6 26.5 12.6 8.8 42.3- 3.0 2.0---- 0.0------------
2019-06-22 21.0 26.4 16.3 13.8 53.0- 2.0 2.7---- 0.0------------
2019-06-21 22.9 28.7 18.7 16.8 69.5- 4.7 1.7---- 0.3------------
2019-06-20 24.8 30.0 20.1 16.9 65.5- 5.7 2.0---- 0.5------------
2019-06-19 23.0 29.2 17.5 14.4 64.5- 6.0 3.0---- 0.7------------
2019-06-18 20.8 27.2 13.2 10.5 52.8- 3.7 2.3---- 0.0------------
2019-06-17 19.5 23.9 14.8 13.3 65.8- 1.7 2.0---- 0.0------------
2019-06-16 23.9 28.5 22.0 20.8 66.8- 5.7 2.3---- 0.0------------
2019-06-15 25.8 32.0 18.8 16.9 62.0- 2.0 2.7---- 0.0------------
2019-06-14 23.0 28.9 18.0 17.3 76.0- 2.0 1.7---- 0.0------------
2019-06-13 27.2 34.0 22.9 19.4 51.0- 3.0 3.3---- 6.0------------
2019-06-12 27.8 33.8 22.1 18.3 48.8- 0.7 3.3---- 0.0------------
2019-06-11 27.6 33.4 21.2 17.9 51.8- 0.7 4.0---- 0.0------------
2019-06-10 23.2 30.5 14.1 10.6 53.3- 3.3 4.0---- 0.0------------
2019-06-09 20.0 26.0 14.3 11.6 52.0- 0.7 1.7---- 0.0------------
2019-06-08 23.2 29.0 17.5 14.6 66.3- 3.3 2.3---- 0.2------------
2019-06-07 23.1 29.3 17.3 15.2 61.5- 2.3 2.3---- 0.0------------
2019-06-06 23.5 28.5 18.8 15.2 60.0- 3.0 4.0---- 0.0------------
2019-06-05 23.7 28.8 16.5 12.8 52.0- 0.7 3.7---- 0.0------------
2019-06-04 23.1 29.5 14.5 11.2 53.0- 2.0 3.3---- 0.0------------
2019-06-03 21.2 27.9 13.6 10.2 50.8- 0.3 2.0---- 0.0------------
2019-06-02 21.4 26.8 15.3 12.2 63.5- 4.0 2.3---- 0.0------------
2019-06-01 19.2 23.9 14.1 10.9 68.8- 3.3 1.3---- 0.0------------
2019-05-31 16.6 23.2 7.7 5.3 50.0- 1.3 2.0---- 0.0------------
2019-05-30 12.4 19.1 4.1 2.2 60.5- 3.0 1.0---- 0.0------------
2019-05-29 12.9 16.3 10.2 10.3 78.3- 7.3 3.0---- 0.1------------
2019-05-28 18.5 24.5 15.9 14.9 90.8- 5.7 2.0---- 5.7------------
2019-05-27 20.6 26.0 14.5 11.1 57.0- 3.7 2.7---- 2.0------------
2019-05-26 15.3 20.2 9.0 6.8 61.8- 4.3 3.0---- 0.0------------
2019-05-25 17.4 23.4 11.6 8.7 54.8- 3.3 3.0---- 0.0------------
2019-05-24 15.7 21.0 10.4 8.9 70.5- 4.0 1.3---- 0.0------------
2019-05-23 16.1 20.3 12.1 9.9 86.0- 7.3 1.3---- 2.2------------
2019-05-22 15.3 19.1 10.0 8.1 77.5- 6.3 2.7---- 0.0------------
2019-05-21 17.9 22.1 14.1 12.8 77.0- 4.0 2.7---- 3.9------------
2019-05-20 20.0 25.8 15.8 11.8 78.5- 6.0 3.0---- 3.7------------
2019-05-19 18.9 22.7 16.5 13.8 81.0- 5.3 3.0---- 0.8------------
2019-05-18 17.1 23.5 11.8 8.0 88.3- 6.0 2.7---- 11.7------------
2019-05-17 17.0 21.5 13.8 13.3 84.3- 5.3 2.3---- 22.5------------
2019-05-16 14.9 17.5 12.1 11.7 93.3- 8.0 1.3---- 13.8------------
2019-05-15 10.1 12.4 6.9 7.1 96.3- 8.0 2.0---- 15.3------------
2019-05-14 7.1 8.8 5.4 5.4 94.8- 8.0 2.0---- 5.5------------
2019-05-13 8.0 10.8 6.3 6.5 88.0- 8.0 1.7---- 1.8------------
2019-05-12 14.2 24.0 9.1 4.8 70.5- 7.0 3.0---- 4.5------------
2019-05-11 14.0 19.5 10.1 5.4 71.8- 4.7 2.0---- 0.0------------
2019-05-10 12.6 16.6 9.1 8.2 82.3- 6.3 2.0---- 0.1------------
2019-05-09 12.8 19.4 7.0 3.7 49.3- 6.7 3.7---- 0.4------------
2019-05-08 10.3 15.6 2.2 -2.2 41.3- 3.3 3.7---- 0.0------------
2019-05-07 9.1 14.2 3.7 -0.4 52.5- 1.7 2.0---- 0.0------------
2019-05-06 8.2 14.9 0.8 -3.5 50.3- 5.0 2.3---- 0.0------------
2019-05-05 7.4 12.3 3.9 4.0 73.0- 6.7 3.0---- 0.0------------
2019-05-04 10.0 14.7 4.4 1.0 48.8- 3.0 2.7---- 0.7------------
2019-05-03 9.9 13.6 7.6 6.2 62.8- 6.0 2.7---- 0.1------------
177.0 ms

 

Źródłem pochodzenia danych jest Instytut Meteorologii i Gospodarki Wodnej – Państwowy Instytut Badawczy. Dane Instytutu Meteorologii i Gospodarki Wodnej – Państwowego Instytutu Badawczego zostały przetworzone.

Dane źródłowe można odnaleźć na stronie https://dane.imgw.pl